Time;durP1;ratioP1;P1;durP2;ratioP2;P2;SDS_P1;SDS_P2;PMS_P1;PMS_P2;Temp;Humidity;BMP_temperature;BMP_pressure;BME280_temperature;BME280_humidity;BME280_pressure;Samples;Min_cycle;Max_cycle;Signal;HPM_P1;HPM_P2
2023/12/28 00:01:13;;;;;;;13.27;4.18;;;;;;;9.41;100.00;100744.53;5084279;28;20031;-77
2023/12/28 00:03:40;;;;;;;12.93;4.20;;;;;;;9.41;100.00;100735.75;5083286;28;20429;-83
2023/12/28 00:06:06;;;;;;;12.45;4.15;;;;;;;9.38;100.00;100752.44;5083172;28;20048;-83
2023/12/28 00:08:32;;;;;;;11.43;3.97;;;;;;;9.32;100.00;100749.75;5084256;28;20529;-83
2023/12/28 00:10:57;;;;;;;12.75;3.90;;;;;;;9.28;100.00;100740.03;5082043;28;20028;-83
2023/12/28 00:13:23;;;;;;;14.48;4.10;;;;;;;9.27;100.00;100758.50;5085041;28;20467;-83
2023/12/28 00:15:48;;;;;;;12.68;4.00;;;;;;;9.23;100.00;100763.75;5081496;28;20497;-82
2023/12/28 00:18:14;;;;;;;11.07;3.85;;;;;;;9.22;100.00;100769.00;5045980;28;1089268;-77
2023/12/28 00:20:39;;;;;;;11.02;3.80;;;;;;;9.22;100.00;100764.59;5082750;28;20040;-80
2023/12/28 00:23:06;;;;;;;12.48;4.00;;;;;;;9.22;100.00;100769.00;5084001;28;20110;-78
2023/12/28 00:25:31;;;;;;;12.30;4.07;;;;;;;9.13;100.00;100775.09;5084464;28;20081;-75
2023/12/28 00:27:56;;;;;;;13.80;4.00;;;;;;;9.11;100.00;100774.16;5082604;28;20108;-75
2023/12/28 00:30:22;;;;;;;13.13;4.10;;;;;;;9.06;100.00;100792.59;5085716;28;20485;-75
2023/12/28 00:32:47;;;;;;;12.95;4.00;;;;;;;9.05;100.00;100785.53;5082146;28;20035;-77
2023/12/28 00:35:13;;;;;;;14.60;4.43;;;;;;;9.09;100.00;100789.09;5066474;28;20107;-76
2023/12/28 00:37:38;;;;;;;14.38;4.20;;;;;;;9.23;100.00;100774.28;5083702;28;20467;-77
2023/12/28 00:40:04;;;;;;;12.77;4.10;;;;;;;9.22;100.00;100783.06;5083340;28;20037;-78
2023/12/28 00:42:30;;;;;;;12.75;4.20;;;;;;;9.15;100.00;100797.06;5084620;28;20115;-76
2023/12/28 00:44:55;;;;;;;13.90;4.20;;;;;;;9.20;100.00;100794.47;5082032;28;20088;-78
2023/12/28 00:47:21;;;;;;;14.13;4.28;;;;;;;9.23;100.00;100790.13;5067047;28;20097;-78
2023/12/28 00:49:46;;;;;;;12.48;4.25;;;;;;;9.27;100.00;100793.66;5081939;28;20112;-78
2023/12/28 00:52:11;;;;;;;13.18;4.13;;;;;;;9.26;100.00;100789.25;5084390;28;20067;-78
2023/12/28 00:54:37;;;;;;;14.82;4.65;;;;;;;9.25;100.00;100798.06;5085264;28;20429;-78
2023/12/28 00:57:05;;;;;;;14.68;4.30;;;;;;;9.26;100.00;100802.44;5083672;28;20352;-75
2023/12/28 00:59:31;;;;;;;14.32;4.53;;;;;;;9.23;100.00;100805.03;5082624;28;20036;-76
2023/12/28 01:01:57;;;;;;;13.75;4.40;;;;;;;9.18;100.00;100825.22;5084585;28;20612;-75
2023/12/28 01:04:25;;;;;;;13.13;4.15;;;;;;;9.17;100.00;100820.81;5063428;28;20033;-75
2023/12/28 01:06:52;;;;;;;13.82;4.55;;;;;;;9.18;100.00;100807.66;5063552;28;20120;-78
2023/12/28 01:09:17;;;;;;;16.02;4.82;;;;;;;9.20;100.00;100813.84;5066594;28;20131;-78
2023/12/28 01:11:42;;;;;;;14.10;4.35;;;;;;;9.25;100.00;100792.78;5082381;28;20526;-75
2023/12/28 01:14:08;;;;;;;14.00;4.40;;;;;;;9.28;100.00;100808.63;5065335;28;20029;-78
2023/12/28 01:16:33;;;;;;;12.32;4.35;;;;;;;9.26;100.00;100818.25;5083613;28;20107;-78
2023/12/28 01:18:59;;;;;;;13.48;4.32;;;;;;;9.30;100.00;100812.16;5081927;28;20070;-78
2023/12/28 01:21:24;;;;;;;13.73;4.20;;;;;;;9.25;100.00;100833.22;5084543;28;20119;-75
2023/12/28 01:23:51;;;;;;;14.75;4.25;;;;;;;9.21;100.00;100826.13;5081114;28;20032;-78
2023/12/28 01:26:17;;;;;;;15.82;4.47;;;;;;;9.22;100.00;100829.69;5084075;28;20024;-76
2023/12/28 01:28:42;;;;;;;14.20;4.20;;;;;;;9.26;100.00;100831.44;5082073;28;20035;-75
2023/12/28 01:31:08;;;;;;;15.23;4.25;;;;;;;9.27;100.00;100841.13;5082542;28;20025;-75
2023/12/28 01:33:34;;;;;;;15.15;4.40;;;;;;;9.19;100.00;100825.25;5083258;28;20074;-76
2023/12/28 01:35:59;;;;;;;16.33;4.40;;;;;;;9.28;100.00;100823.56;5081550;28;20467;-75
2023/12/28 01:38:24;;;;;;;12.75;4.03;;;;;;;9.31;100.00;100842.06;5066376;28;20069;-75
2023/12/28 01:40:50;;;;;;;11.98;4.03;;;;;;;9.33;100.00;100843.81;5081568;28;20021;-78
2023/12/28 01:43:15;;;;;;;15.68;4.72;;;;;;;9.20;100.00;100853.41;5084126;28;20135;-76
2023/12/28 01:45:40;;;;;;;13.80;4.10;;;;;;;9.15;100.00;100857.72;5082349;28;20028;-76
2023/12/28 01:48:06;;;;;;;12.88;4.00;;;;;;;9.24;100.00;100854.31;5082891;28;20025;-84
2023/12/28 01:50:32;;;;;;;15.40;4.22;;;;;;;9.20;100.00;100847.22;5083554;28;20577;-83
2023/12/28 01:53:01;;;;;;;13.90;4.15;;;;;;;9.14;100.00;100876.19;5081329;28;20040;-78
2023/12/28 01:55:27;;;;;;;15.93;4.28;;;;;;;9.11;100.00;100852.41;5084477;28;20121;-79
2023/12/28 01:57:54;;;;;;;15.10;4.30;;;;;;;9.08;100.00;100869.94;5063076;28;20032;-81
2023/12/28 02:00:21;;;;;;;15.73;4.20;;;;;;;9.06;100.00;100845.34;5084345;28;20032;-82
2023/12/28 02:02:48;;;;;;;15.27;4.20;;;;;;;9.11;100.00;100852.41;5081521;28;20483;-79
2023/12/28 02:05:14;;;;;;;13.68;4.00;;;;;;;9.08;100.00;100848.84;5083423;28;20078;-82
2023/12/28 02:07:39;;;;;;;14.02;4.25;;;;;;;9.06;100.00;100855.88;5082300;28;20028;-83
2023/12/28 02:10:05;;;;;;;15.20;4.43;;;;;;;9.04;100.00;100847.09;5081952;28;20128;-78
2023/12/28 02:12:31;;;;;;;14.10;4.07;;;;;;;9.06;100.00;100863.78;5083296;28;20024;-78
2023/12/28 02:14:57;;;;;;;13.60;4.28;;;;;;;9.05;100.00;100856.75;5081067;28;20032;-78
2023/12/28 02:17:40;;;;;;;12.60;3.88;;;;;;;9.13;100.00;100853.31;5084304;28;20375;-77
2023/12/28 02:20:06;;;;;;;15.20;4.20;;;;;;;9.18;100.00;100870.06;5081799;28;20045;-79
2023/12/28 02:22:32;;;;;;;11.60;3.83;;;;;;;9.08;100.00;100862.03;5083117;28;20024;-76
2023/12/28 02:25:04;;;;;;;15.45;4.30;;;;;;;9.04;100.00;100856.72;5081008;28;20107;-79
2023/12/28 02:27:29;;;;;;;15.13;4.05;;;;;;;8.96;100.00;100856.66;5083813;28;20443;-79
2023/12/28 02:29:56;;;;;;;15.43;4.22;;;;;;;9.03;100.00;100863.75;5080493;28;20020;-76
2023/12/28 02:32:29;;;;;;;14.95;4.13;;;;;;;9.04;100.00;100873.44;5081057;28;20384;-76
2023/12/28 02:35:01;;;;;;;12.77;4.03;;;;;;;9.06;100.00;100845.34;5080970;28;20040;-79
2023/12/28 02:37:29;;;;;;;15.07;3.90;;;;;;;9.05;100.00;100869.06;5080988;28;20024;-79
2023/12/28 02:39:55;;;;;;;12.75;4.10;;;;;;;9.02;100.00;100826.84;5083878;28;20501;-76
2023/12/28 02:42:20;;;;;;;14.02;4.00;;;;;;;9.02;100.00;100842.66;5081486;28;20025;-76
2023/12/28 02:44:46;;;;;;;15.93;3.95;;;;;;;8.98;100.00;100849.63;5086879;28;20032;-77
2023/12/28 02:47:11;;;;;;;12.70;3.60;;;;;;;9.04;100.00;100881.38;5067800;28;20040;-79
2023/12/28 02:49:36;;;;;;;14.93;3.90;;;;;;;9.18;100.00;100856.88;5085731;28;20056;-79
2023/12/28 02:52:02;;;;;;;13.13;3.80;;;;;;;9.15;100.00;100855.09;5086688;28;20036;-80
2023/12/28 02:54:28;;;;;;;11.07;3.80;;;;;;;9.10;100.00;100841.00;5084324;28;20060;-79
2023/12/28 02:56:53;;;;;;;13.93;3.90;;;;;;;9.18;100.00;100822.59;5087496;28;20423;-79
2023/12/28 02:59:19;;;;;;;13.23;3.83;;;;;;;9.19;100.00;100824.38;5084096;28;20075;-79
2023/12/28 03:01:44;;;;;;;14.27;3.90;;;;;;;9.20;100.00;100832.31;5086386;28;20037;-79
2023/12/28 03:04:09;;;;;;;15.00;3.80;;;;;;;9.17;100.00;100812.91;5085379;28;20111;-79
2023/12/28 03:06:35;;;;;;;13.02;3.63;;;;;;;9.16;100.00;100834.88;5085258;28;20123;-79
2023/12/28 03:09:00;;;;;;;14.20;3.70;;;;;;;9.19;100.00;100821.75;5086594;28;20089;-79
2023/12/28 03:11:26;;;;;;;13.65;3.75;;;;;;;9.20;100.00;100820.84;5083745;28;20031;-80
2023/12/28 03:13:51;;;;;;;15.05;3.80;;;;;;;9.27;100.00;100830.59;5083620;28;20115;-79
2023/12/28 03:16:17;;;;;;;14.88;3.78;;;;;;;9.23;100.00;100811.22;5086686;28;20060;-80
2023/12/28 03:18:42;;;;;;;13.73;3.72;;;;;;;9.22;100.00;100840.22;5084499;28;20045;-76
2023/12/28 03:21:07;;;;;;;14.18;3.63;;;;;;;9.28;100.00;100835.00;5085380;28;20028;-76
2023/12/28 03:23:32;;;;;;;13.98;3.50;;;;;;;9.30;100.00;100821.81;5086407;28;20024;-79
2023/12/28 03:26:00;;;;;;;14.73;3.80;;;;;;;9.29;100.00;100826.22;5083760;28;20029;-79
2023/12/28 03:28:25;;;;;;;12.90;3.58;;;;;;;9.29;100.00;100838.50;5068756;28;20032;-79
2023/12/28 03:30:51;;;;;;;15.38;3.58;;;;;;;9.37;100.00;100853.53;5065601;28;20127;-78
2023/12/28 03:33:16;;;;;;;14.52;3.78;;;;;;;9.36;100.00;100856.16;5086233;28;20068;-79
2023/12/28 03:35:42;;;;;;;13.98;3.70;;;;;;;9.38;100.00;100850.03;5084777;28;20532;-79
2023/12/28 03:38:07;;;;;;;13.32;3.75;;;;;;;9.48;100.00;100831.66;5084833;28;20039;-80
2023/12/28 03:40:32;;;;;;;14.75;3.58;;;;;;;9.55;100.00;100870.41;5085816;28;20024;-79
2023/12/28 03:42:58;;;;;;;10.40;3.22;;;;;;;9.58;100.00;100851.97;5083366;28;20051;-78
2023/12/28 03:45:23;;;;;;;13.45;3.50;;;;;;;9.64;100.00;100838.84;5083381;28;20036;-77
2023/12/28 03:47:48;;;;;;;16.75;3.45;;;;;;;9.69;100.00;100828.31;5086282;28;20032;-76
2023/12/28 03:50:14;;;;;;;15.52;3.40;;;;;;;9.74;100.00;100843.31;5084258;28;20048;-76
2023/12/28 03:52:39;;;;;;;15.35;3.40;;;;;;;9.77;100.00;100805.47;5084817;28;20069;-76
2023/12/28 03:55:05;;;;;;;13.90;3.17;;;;;;;9.83;100.00;100824.03;5080992;28;20058;-76
2023/12/28 03:57:30;;;;;;;14.68;3.53;;;;;;;9.81;100.00;100811.69;5085725;28;20068;-76
2023/12/28 03:59:56;;;;;;;14.25;3.40;;;;;;;9.73;100.00;100825.72;5082480;28;20032;-75
2023/12/28 04:02:22;;;;;;;13.10;3.10;;;;;;;9.80;100.00;100808.16;5082663;28;20479;-76
2023/12/28 04:04:47;;;;;;;16.48;3.35;;;;;;;9.75;100.00;100842.44;5085515;28;20085;-76
2023/12/28 04:07:13;;;;;;;17.17;3.45;;;;;;;9.83;100.00;100846.88;5083635;28;20378;-77
2023/12/28 04:09:38;;;;;;;14.85;3.30;;;;;;;9.79;100.00;100821.34;5083897;28;20038;-78
2023/12/28 04:12:04;;;;;;;16.92;3.47;;;;;;;9.83;100.00;100829.31;5085001;28;20028;-76
2023/12/28 04:14:29;;;;;;;13.10;3.25;;;;;;;9.87;100.00;100825.81;5082852;28;20108;-78
2023/12/28 04:16:54;;;;;;;14.68;3.35;;;;;;;9.83;100.00;100828.41;5085909;28;20028;-77
2023/12/28 04:19:20;;;;;;;14.80;3.38;;;;;;;9.76;100.00;100844.22;5082220;28;20044;-78
2023/12/28 04:21:45;;;;;;;15.35;3.60;;;;;;;9.74;100.00;100840.69;5084621;28;20067;-76
2023/12/28 04:24:10;;;;;;;13.15;2.97;;;;;;;9.81;100.00;100840.72;5083795;28;20122;-76
2023/12/28 04:26:36;;;;;;;16.20;3.55;;;;;;;9.94;100.00;100839.94;5083232;28;20028;-77
2023/12/28 04:29:02;;;;;;;16.38;3.40;;;;;;;9.97;100.00;100866.34;5085161;28;20157;-83
2023/12/28 04:31:27;;;;;;;18.35;3.95;;;;;;;9.94;100.00;100827.59;5064635;28;20032;-84
2023/12/28 04:33:52;;;;;;;13.95;3.50;;;;;;;9.95;100.00;100844.34;5067514;28;20028;-84
2023/12/28 04:36:18;;;;;;;13.30;3.03;;;;;;;9.97;100.00;100820.59;5082712;28;20494;-79
2023/12/28 04:38:43;;;;;;;15.57;3.25;;;;;;;9.98;100.00;100832.94;5084447;28;20186;-80
2023/12/28 04:41:09;;;;;;;17.77;3.33;;;;;;;9.91;100.00;100829.34;5066024;28;20031;-76
2023/12/28 04:43:34;;;;;;;14.18;3.30;;;;;;;10.01;100.00;100811.81;5083441;28;20036;-76
2023/12/28 04:46:06;;;;;;;15.57;3.53;;;;;;;9.94;100.00;100845.22;5085173;28;20035;-83
2023/12/28 04:48:32;;;;;;;15.60;3.40;;;;;;;9.89;100.00;100823.19;5064441;28;20029;-84
2023/12/28 04:50:57;;;;;;;16.55;3.40;;;;;;;9.85;100.00;100826.69;5085143;28;20024;-79
2023/12/28 04:53:22;;;;;;;17.95;3.42;;;;;;;9.87;100.00;100836.38;5081996;28;20398;-81
2023/12/28 04:55:48;;;;;;;18.52;3.40;;;;;;;9.93;100.00;100825.84;5084710;28;20111;-83
2023/12/28 04:58:14;;;;;;;17.23;3.53;;;;;;;10.03;100.00;100842.66;5082884;28;20028;-83
2023/12/28 05:00:39;;;;;;;16.45;3.22;;;;;;;10.08;100.00;100835.63;5065486;28;20037;-83
2023/12/28 05:03:04;;;;;;;15.05;3.15;;;;;;;10.08;100.00;100845.31;5084098;28;20122;-82
2023/12/28 05:05:30;;;;;;;16.27;3.42;;;;;;;10.03;100.00;100847.94;5063792;28;20082;-80
2023/12/28 05:07:55;;;;;;;16.60;3.20;;;;;;;10.08;100.00;100854.13;5059151;28;20028;-84
2023/12/28 05:10:21;;;;;;;18.45;3.70;;;;;;;10.10;100.00;100852.34;5081715;28;20024;-84
2023/12/28 05:12:46;;;;;;;17.90;3.70;;;;;;;10.07;100.00;100852.34;5085120;28;20049;-82
2023/12/28 05:15:11;;;;;;;17.10;3.40;;;;;;;10.10;100.00;100852.34;5083392;28;20042;-84
2023/12/28 05:17:37;;;;;;;15.20;3.63;;;;;;;10.10;100.00;100865.56;5082545;28;20036;-77
2023/12/28 05:20:03;;;;;;;16.85;3.47;;;;;;;10.11;100.00;100827.72;5083940;28;20044;-79
2023/12/28 05:22:28;;;;;;;17.13;3.25;;;;;;;10.02;100.00;100861.09;5081272;28;20032;-79
2023/12/28 05:24:54;;;;;;;17.50;3.42;;;;;;;9.88;100.00;100847.81;5066566;28;20067;-75
2023/12/28 05:27:19;;;;;;;16.00;3.20;;;;;;;9.81;100.00;100851.28;5047188;28;20028;-79
2023/12/28 05:29:44;;;;;;;17.45;3.33;;;;;;;9.67;100.00;100830.03;5065742;28;20028;-78
2023/12/28 05:32:10;;;;;;;17.60;3.50;;;;;;;9.65;100.00;100845.88;5082775;28;20047;-78
2023/12/28 05:34:35;;;;;;;19.25;3.50;;;;;;;9.71;100.00;100859.13;5082446;28;20040;-78
2023/12/28 05:37:00;;;;;;;18.30;3.40;;;;;;;9.61;100.00;100838.81;5084380;28;20031;-78
2023/12/28 05:39:26;;;;;;;19.73;3.50;;;;;;;9.56;100.00;100830.84;5081148;28;20033;-78
2023/12/28 05:41:51;;;;;;;16.30;3.33;;;;;;;9.60;100.00;100850.25;5084730;28;20382;-78
2023/12/28 05:44:17;;;;;;;19.40;3.60;;;;;;;9.66;100.00;100844.13;5080493;28;20443;-78
2023/12/28 05:46:43;;;;;;;17.85;3.42;;;;;;;9.66;100.00;100854.69;5082476;28;20153;-78
2023/12/28 05:49:08;;;;;;;18.98;3.40;;;;;;;9.74;100.00;100866.19;5082522;28;20069;-79
2023/12/28 05:51:40;;;;;;;17.45;3.38;;;;;;;9.77;100.00;100867.09;5083681;28;20034;-79
2023/12/28 05:54:06;;;;;;;15.85;3.30;;;;;;;9.81;100.00;100859.19;5064298;28;20052;-77
2023/12/28 05:56:31;;;;;;;17.75;3.40;;;;;;;9.81;100.00;100875.03;5084024;28;20024;-81
2023/12/28 05:58:57;;;;;;;20.42;3.80;;;;;;;9.72;100.00;100868.81;5062845;28;20479;-75
2023/12/28 06:01:22;;;;;;;20.20;3.55;;;;;;;9.87;100.00;100859.25;5049850;28;20036;-76
2023/12/28 06:03:49;;;;;;;19.15;3.60;;;;;;;9.86;100.00;100860.09;5081959;28;20170;-74
2023/12/28 06:06:15;;;;;;;17.85;3.40;;;;;;;9.85;100.00;100861.88;5065060;28;20033;-75
2023/12/28 06:08:40;;;;;;;20.80;3.72;;;;;;;9.80;100.00;100862.69;5082746;28;20466;-77
2023/12/28 06:11:06;;;;;;;18.55;3.70;;;;;;;9.90;100.00;100880.38;5063801;28;20021;-86
2023/12/28 06:13:31;;;;;;;19.75;3.60;;;;;;;9.85;100.00;100872.44;5083737;28;20468;-81
2023/12/28 06:15:56;;;;;;;21.17;3.60;;;;;;;9.92;100.00;100882.16;5062877;28;20025;-85
2023/12/28 06:18:22;;;;;;;18.55;3.88;;;;;;;9.90;100.00;100873.38;5068194;28;20044;-88
2023/12/28 06:20:47;;;;;;;20.90;3.80;;;;;;;9.91;100.00;100866.31;5085189;28;20052;-86
2023/12/28 06:23:12;;;;;;;20.30;3.83;;;;;;;9.98;100.00;100886.63;5068728;28;20028;-80
2023/12/28 06:25:38;;;;;;;18.42;3.58;;;;;;;9.95;100.00;100876.03;5086682;28;20052;-85
2023/12/28 06:28:03;;;;;;;20.63;3.97;;;;;;;9.97;100.00;100869.00;5085316;28;20387;-86
2023/12/28 06:30:29;;;;;;;20.10;3.50;;;;;;;9.98;100.00;100877.81;5087858;28;20024;-84
2023/12/28 06:32:54;;;;;;;17.65;3.45;;;;;;;10.02;100.00;100904.25;5084611;28;20071;-87
2023/12/28 06:35:20;;;;;;;18.42;3.67;;;;;;;9.93;100.00;100889.22;5087259;28;20028;-81
2023/12/28 06:37:45;;;;;;;21.25;3.45;;;;;;;9.90;100.00;100883.94;5085444;28;20032;-75
2023/12/28 06:40:11;;;;;;;19.10;3.65;;;;;;;9.86;100.00;100897.97;5085730;28;20112;-75
2023/12/28 06:42:37;;;;;;;18.42;3.50;;;;;;;9.82;100.00;100900.59;5086440;28;20413;-75
2023/12/28 06:45:02;;;;;;;16.55;3.30;;;;;;;9.88;100.00;100879.50;5084711;28;20027;-74
2023/12/28 06:47:28;;;;;;;17.48;3.42;;;;;;;9.90;100.00;100896.22;5087398;28;20570;-74
2023/12/28 06:49:53;;;;;;;17.15;3.25;;;;;;;9.75;100.00;100887.31;5084088;28;20029;-78
2023/12/28 06:52:18;;;;;;;18.92;3.63;;;;;;;9.82;100.00;100897.94;5086689;28;20478;-78
2023/12/28 06:54:44;;;;;;;18.85;3.58;;;;;;;9.82;100.00;100900.59;5085171;28;20445;-78
2023/12/28 06:57:09;;;;;;;20.45;3.45;;;;;;;9.80;100.00;100895.28;5085463;28;20078;-78
2023/12/28 06:59:35;;;;;;;18.38;3.58;;;;;;;9.74;100.00;100888.19;5086251;28;20433;-77
2023/12/28 07:02:00;;;;;;;19.75;3.80;;;;;;;9.73;100.00;100886.41;5083883;28;20555;-78
2023/12/28 07:04:29;;;;;;;20.35;3.60;;;;;;;9.67;100.00;100882.84;5069234;28;20035;-78
2023/12/28 07:06:54;;;;;;;19.35;3.28;;;;;;;9.69;100.00;100908.38;5083945;28;20540;-78
2023/12/28 07:09:20;;;;;;;20.65;3.60;;;;;;;9.62;100.00;100889.84;5086515;28;20029;-78
2023/12/28 07:11:45;;;;;;;21.27;3.50;;;;;;;9.67;100.00;100902.22;5084752;28;20390;-78
2023/12/28 07:14:11;;;;;;;21.70;4.03;;;;;;;9.65;100.00;100898.66;5085121;28;20021;-78
2023/12/28 07:16:36;;;;;;;20.73;3.70;;;;;;;9.56;100.00;100919.69;5085843;28;20097;-78
2023/12/28 07:19:01;;;;;;;20.55;3.63;;;;;;;9.66;100.00;100918.03;5083754;28;20048;-78
2023/12/28 07:21:27;;;;;;;21.33;3.67;;;;;;;9.57;100.00;100917.06;5068759;28;20032;-79
2023/12/28 07:23:52;;;;;;;20.98;3.88;;;;;;;9.52;100.00;100923.16;5083555;28;20369;-76
2023/12/28 07:26:17;;;;;;;22.20;3.70;;;;;;;9.49;100.00;100933.69;5085947;28;20027;-75
2023/12/28 07:28:44;;;;;;;20.60;3.65;;;;;;;9.58;100.00;100934.69;5084453;28;20067;-75
2023/12/28 07:31:10;;;;;;;20.50;3.80;;;;;;;9.63;100.00;100933.84;5084810;28;20024;-79
2023/12/28 07:33:35;;;;;;;19.92;3.70;;;;;;;9.69;100.00;100942.69;5085514;28;20024;-78
2023/12/28 07:36:02;;;;;;;18.88;3.80;;;;;;;9.75;100.00;100934.81;5083336;28;20464;-78
2023/12/28 07:38:28;;;;;;;20.67;3.78;;;;;;;9.76;100.00;100941.88;5087148;28;20027;-80
2023/12/28 07:40:53;;;;;;;18.73;3.30;;;;;;;9.73;100.00;100933.94;5083811;28;20033;-80
2023/12/28 07:43:19;;;;;;;17.85;3.30;;;;;;;9.75;100.00;100933.94;5086548;28;20510;-83
2023/12/28 07:45:44;;;;;;;19.35;3.50;;;;;;;9.69;100.00;100963.81;5085904;28;20040;-87
2023/12/28 07:48:09;;;;;;;20.65;3.40;;;;;;;9.73;100.00;100923.38;5084557;28;20518;-87
2023/12/28 07:50:34;;;;;;;21.00;3.60;;;;;;;9.74;100.00;100948.91;5085391;28;20494;-87
2023/12/28 07:53:00;;;;;;;20.88;3.67;;;;;;;9.76;100.00;100952.44;5083642;28;20434;-84
2023/12/28 07:55:26;;;;;;;22.58;3.72;;;;;;;9.73;100.00;100954.19;5086686;28;20028;-80
2023/12/28 07:57:51;;;;;;;21.90;3.78;;;;;;;9.73;100.00;100977.94;5083081;28;20136;-80
2023/12/28 08:00:17;;;;;;;20.63;3.90;;;;;;;9.72;100.00;100969.13;5085235;28;20527;-75
2023/12/28 08:02:43;;;;;;;22.27;3.63;;;;;;;9.74;100.00;100970.03;5084333;28;20071;-80
2023/12/28 08:05:08;;;;;;;19.60;3.88;;;;;;;9.75;100.00;100949.78;5083825;28;20021;-81
2023/12/28 08:07:34;;;;;;;19.95;3.65;;;;;;;9.79;100.00;100958.66;5085730;28;20445;-80
2023/12/28 08:10:00;;;;;;;20.00;3.58;;;;;;;9.77;100.00;100985.00;5082423;28;20071;-77
2023/12/28 08:12:27;;;;;;;19.67;3.60;;;;;;;9.77;100.00;100974.44;5068229;28;20544;-80
2023/12/28 08:14:54;;;;;;;21.27;3.85;;;;;;;9.72;100.00;100984.09;5083151;28;20048;-77
2023/12/28 08:17:19;;;;;;;20.00;3.47;;;;;;;9.73;100.00;100986.75;5085240;28;20039;-75
2023/12/28 08:19:44;;;;;;;22.08;3.88;;;;;;;9.80;100.00;100970.94;5083519;28;20064;-78
2023/12/28 08:22:10;;;;;;;20.83;3.70;;;;;;;9.77;100.00;100985.00;5083760;28;20077;-80
2023/12/28 08:24:36;;;;;;;20.65;3.45;;;;;;;9.74;100.00;100982.34;5084681;28;20040;-79
2023/12/28 08:27:02;;;;;;;20.13;3.72;;;;;;;9.80;100.00;100968.31;5064799;28;20053;-78
2023/12/28 08:29:28;;;;;;;21.80;3.90;;;;;;;9.74;100.00;100972.69;5085518;28;20032;-75
2023/12/28 08:31:54;;;;;;;19.92;3.45;;;;;;;9.85;100.00;100972.78;5064052;28;20039;-79
2023/12/28 08:34:19;;;;;;;20.90;3.80;;;;;;;9.88;100.00;100987.75;5084805;28;20581;-77
2023/12/28 08:36:45;;;;;;;20.33;3.60;;;;;;;9.89;100.00;100971.94;5083179;28;20085;-77
2023/12/28 08:39:10;;;;;;;21.52;3.60;;;;;;;9.94;100.00;100964.03;5083434;28;20360;-73
2023/12/28 08:41:35;;;;;;;21.30;3.42;;;;;;;9.87;100.00;100978.06;5083964;28;20039;-74
2023/12/28 08:44:01;;;;;;;20.70;3.65;;;;;;;9.86;100.00;100971.91;5082045;28;20494;-74
2023/12/28 08:46:27;;;;;;;19.63;3.70;;;;;;;9.88;100.00;100990.41;5082037;28;20052;-73
2023/12/28 08:48:52;;;;;;;21.45;3.80;;;;;;;9.85;100.00;100970.13;5080594;28;20036;-74
2023/12/28 08:51:18;;;;;;;21.63;3.63;;;;;;;9.85;100.00;100985.09;5080659;28;20073;-74
2023/12/28 08:53:43;;;;;;;20.88;3.70;;;;;;;9.86;100.00;100989.47;5083287;28;20036;-78
2023/12/28 08:56:20;;;;;;;21.50;3.65;;;;;;;9.93;100.00;101009.78;5084239;28;20073;-78
2023/12/28 08:58:47;;;;;;;20.48;3.65;;;;;;;10.04;100.00;100987.03;5064738;28;20028;-78
2023/12/28 09:01:21;;;;;;;22.30;3.90;;;;;;;10.03;100.00;101006.41;5083425;28;20074;-78
2023/12/28 09:03:48;;;;;;;20.42;3.33;;;;;;;10.06;100.00;101021.38;5082254;28;20027;-75
2023/12/28 09:06:13;;;;;;;21.23;3.85;;;;;;;10.00;100.00;101018.69;5083246;28;20085;-79
2023/12/28 09:08:42;;;;;;;19.73;3.60;;;;;;;10.00;100.00;101016.91;5063241;28;20032;-80
2023/12/28 09:11:10;;;;;;;19.92;3.58;;;;;;;9.95;100.00;101019.50;5083645;28;20024;-76
2023/12/28 09:13:35;;;;;;;21.42;3.95;;;;;;;10.03;100.00;101021.34;5083295;28;20028;-78
2023/12/28 09:16:00;;;;;;;21.52;3.50;;;;;;;10.03;100.00;101022.25;5083377;28;20042;-78
2023/12/28 09:18:25;;;;;;;21.58;4.00;;;;;;;10.00;100.00;101034.53;5081859;28;20128;-79
2023/12/28 09:20:51;;;;;;;21.42;3.50;;;;;;;10.02;100.00;101032.78;5084782;28;20032;-79
2023/12/28 09:23:16;;;;;;;20.52;3.75;;;;;;;10.05;100.00;101023.13;5081206;28;20040;-80
2023/12/28 09:25:41;;;;;;;20.63;3.70;;;;;;;10.10;100.00;101016.13;5084233;28;20038;-76
2023/12/28 09:28:07;;;;;;;20.23;3.80;;;;;;;10.07;100.00;101037.22;5082406;28;20024;-78
2023/12/28 09:30:32;;;;;;;20.52;3.50;;;;;;;10.08;100.00;101036.38;5082488;28;20059;-79
2023/12/28 09:32:57;;;;;;;22.35;3.88;;;;;;;10.10;100.00;101037.25;5084122;28;20028;-77
2023/12/28 09:35:24;;;;;;;22.08;3.70;;;;;;;10.07;100.00;101037.22;5081214;28;20032;-85
2023/12/28 09:37:50;;;;;;;20.90;3.53;;;;;;;10.10;100.00;101039.91;5067091;28;20032;-74
2023/12/28 09:40:15;;;;;;;20.10;3.50;;;;;;;10.08;100.00;101036.38;5081194;28;20032;-80
2023/12/28 09:42:53;;;;;;;19.85;3.70;;;;;;;10.05;100.00;101051.31;5083613;28;20033;-77
2023/12/28 09:45:20;;;;;;;19.48;3.25;;;;;;;10.06;100.00;101040.75;5080990;28;20023;-83
2023/12/28 09:47:48;;;;;;;18.73;3.58;;;;;;;10.05;100.00;101068.03;5084617;28;20177;-81
2023/12/28 09:50:16;;;;;;;20.00;3.60;;;;;;;10.08;100.00;101046.94;5081501;28;20468;-74
2023/12/28 09:52:42;;;;;;;21.08;3.70;;;;;;;10.09;100.00;101053.09;5059828;28;20029;-74
2023/12/28 09:55:08;;;;;;;21.25;4.00;;;;;;;10.01;100.00;101053.03;5086822;28;20042;-76
2023/12/28 09:57:34;;;;;;;22.23;3.92;;;;;;;10.04;100.00;101063.63;5087010;28;20025;-80
2023/12/28 09:59:59;;;;;;;21.15;3.70;;;;;;;10.05;100.00;101068.03;5087760;28;20036;-81
2023/12/28 10:02:25;;;;;;;19.58;3.60;;;;;;;10.04;100.00;101063.63;5086098;28;20548;-87
2023/12/28 10:04:50;;;;;;;23.00;3.60;;;;;;;10.03;100.00;101075.06;5085602;28;20036;-85
2023/12/28 10:07:15;;;;;;;19.98;3.40;;;;;;;10.07;100.00;101066.28;5085837;28;20463;-83
2023/12/28 10:09:41;;;;;;;22.02;3.55;;;;;;;10.09;100.00;101072.50;5088143;28;20020;-84
2023/12/28 10:12:06;;;;;;;20.45;3.90;;;;;;;10.12;100.00;101063.72;5086708;28;20521;-82
2023/12/28 10:14:32;;;;;;;23.63;3.60;;;;;;;10.18;100.00;101081.34;5086082;28;20506;-87
2023/12/28 10:16:57;;;;;;;22.13;4.38;;;;;;;10.21;100.00;101073.47;5088019;28;20081;-77
2023/12/28 10:19:23;;;;;;;20.40;3.33;;;;;;;10.27;100.00;101052.41;5084472;28;20137;-74
2023/12/28 10:21:49;;;;;;;22.40;3.70;;;;;;;10.28;100.00;101060.34;5084258;28;20033;-78
2023/12/28 10:24:14;;;;;;;19.73;3.30;;;;;;;10.29;100.00;101070.03;5087840;28;20386;-82
2023/12/28 10:26:40;;;;;;;23.60;3.90;;;;;;;10.29;100.00;101069.13;5086488;28;20031;-79
2023/12/28 10:29:05;;;;;;;22.13;3.90;;;;;;;10.33;100.00;101070.06;5086475;28;20086;-79
2023/12/28 10:31:30;;;;;;;20.50;3.92;;;;;;;10.36;100.00;101057.78;5087015;28;20443;-84
2023/12/28 10:34:02;;;;;;;20.08;3.60;;;;;;;10.35;100.00;101076.28;5084482;28;20094;-82
2023/12/28 10:36:28;;;;;;;19.77;3.90;;;;;;;10.30;100.00;101076.19;5086817;28;20024;-82
2023/12/28 10:38:54;;;;;;;22.10;3.90;;;;;;;10.34;100.00;101063.91;5084401;28;20382;-80
2023/12/28 10:41:21;;;;;;;21.25;3.85;;;;;;;10.40;100.00;101064.88;5069832;28;20028;-82
2023/12/28 10:43:59;;;;;;;19.70;3.70;;;;;;;10.51;100.00;101035.88;5084314;28;20028;-88
2023/12/28 10:46:31;;;;;;;22.00;4.00;;;;;;;10.75;100.00;101047.53;5084238;28;20032;-83
2023/12/28 10:49:09;;;;;;;20.85;3.70;;;;;;;10.93;100.00;101054.69;5087224;28;20509;-84
2023/12/28 10:51:36;;;;;;;22.55;4.18;;;;;;;10.86;100.00;101045.81;5085273;28;20031;-85
2023/12/28 10:54:07;;;;;;;21.33;3.88;;;;;;;11.06;100.00;101043.28;5086242;28;20021;-82
2023/12/28 10:56:40;;;;;;;23.20;4.32;;;;;;;11.20;100.00;101037.19;5084975;28;20032;-81
2023/12/28 10:59:27;;;;;;;;;;;;;;;11.35;100.00;101047.84;5086193;28;20031;-82
2023/12/28 11:01:56;;;;;;;19.75;3.63;;;;;;;11.11;100.00;101044.22;5083825;28;19912;-80
2023/12/28 11:04:42;;;;;;;19.65;3.60;;;;;;;11.12;100.00;101045.97;5082939;28;20085;-79
2023/12/28 11:07:09;;;;;;;22.77;4.38;;;;;;;11.03;100.00;101056.50;5078274;28;20040;-75
2023/12/28 11:09:36;;;;;;;20.70;3.72;;;;;;;11.13;100.00;101037.16;5086365;28;20487;-74